Time;durP1;ratioP1;P1;durP2;ratioP2;P2;SDS_P1;SDS_P2;PMS_P1;PMS_P2;Temp;Humidity;BMP_temperature;BMP_pressure;BME280_temperature;BME280_humidity;BME280_pressure;Samples;Min_cycle;Max_cycle;Signal;HPM_P1;HPM_P2
2023/10/03 00:00:39;;;;;;;11.97;5.70;;;;;;;;;;5114790;28;20232;-81
2023/10/03 00:03:08;;;;;;;10.70;5.63;;;;;;;;;;5115807;28;20211;-82
2023/10/03 00:05:35;;;;;;;13.73;6.17;;;;;;;;;;5115157;28;20238;-82
2023/10/03 00:08:04;;;;;;;12.57;5.23;;;;;;;;;;5115630;28;20295;-82
2023/10/03 00:10:31;;;;;;;10.57;5.27;;;;;;;;;;5114685;28;20308;-82
2023/10/03 00:12:59;;;;;;;8.17;5.70;;;;;;;;;;5115603;28;20208;-82
2023/10/03 00:15:28;;;;;;;10.63;5.43;;;;;;;;;;5114731;28;20315;-82
2023/10/03 00:17:56;;;;;;;13.80;5.63;;;;;;;;;;5115316;28;20239;-82
2023/10/03 00:20:23;;;;;;;13.63;6.00;;;;;;;;;;5114337;28;20243;-82
2023/10/03 00:22:51;;;;;;;13.30;5.57;;;;;;;;;;5115197;28;20204;-82
2023/10/03 00:25:19;;;;;;;13.93;5.20;;;;;;;;;;5114688;27;20277;-82
2023/10/03 00:27:46;;;;;;;11.37;5.10;;;;;;;;;;5115068;28;20685;-82
2023/10/03 00:30:14;;;;;;;9.27;5.23;;;;;;;;;;5114380;27;20236;-82
2023/10/03 00:32:43;;;;;;;7.20;4.57;;;;;;;;;;5115279;27;20206;-82
2023/10/03 00:35:11;;;;;;;9.83;5.40;;;;;;;;;;5114284;28;20246;-82
2023/10/03 00:37:39;;;;;;;9.23;5.40;;;;;;;;;;5114623;28;20203;-81
2023/10/03 00:40:16;;;;;;;7.37;5.00;;;;;;;;;;5113826;28;20235;-82
2023/10/03 00:42:44;;;;;;;10.93;5.13;;;;;;;;;;5114577;28;20188;-81
2023/10/03 00:45:13;;;;;;;12.90;6.80;;;;;;;;;;5113916;28;20228;-81
2023/10/03 00:47:41;;;;;;;8.53;5.17;;;;;;;;;;5114352;28;20253;-81
2023/10/03 00:50:10;;;;;;;10.30;5.73;;;;;;;;;;5113844;28;20242;-81
2023/10/03 00:52:38;;;;;;;9.97;5.43;;;;;;;;;;5114559;28;20253;-81
2023/10/03 00:55:06;;;;;;;10.27;5.27;;;;;;;;;;5113869;28;20234;-81
2023/10/03 00:57:34;;;;;;;8.80;4.53;;;;;;;;;;5114390;28;20263;-82
2023/10/03 01:00:01;;;;;;;11.60;5.10;;;;;;;;;;5113441;28;20240;-81
2023/10/03 01:02:28;;;;;;;9.83;5.40;;;;;;;;;;5113964;28;20238;-81
2023/10/03 01:04:55;;;;;;;8.43;5.03;;;;;;;;;;5112461;28;20231;-82
2023/10/03 01:07:24;;;;;;;10.53;5.57;;;;;;;;;;5101223;28;20819;-82
2023/10/03 01:09:53;;;;;;;11.07;4.47;;;;;;;;;;5113608;28;20649;-82
2023/10/03 01:12:21;;;;;;;10.83;5.53;;;;;;;;;;5114187;28;20669;-82
2023/10/03 01:14:49;;;;;;;11.00;5.27;;;;;;;;;;5113970;28;20239;-82
2023/10/03 01:17:16;;;;;;;10.27;4.97;;;;;;;;;;5114004;28;20696;-81
2023/10/03 01:19:43;;;;;;;16.63;5.93;;;;;;;;;;5113518;28;20274;-81
2023/10/03 01:22:13;;;;;;;9.70;5.03;;;;;;;;;;5114148;28;20208;-81
2023/10/03 01:24:43;;;;;;;13.07;5.20;;;;;;;;;;5113833;28;20314;-82
2023/10/03 01:27:10;;;;;;;13.07;5.17;;;;;;;;;;5114857;28;20557;-81
2023/10/03 01:29:37;;;;;;;7.03;4.30;;;;;;;;;;5113523;28;20235;-82
2023/10/03 01:32:06;;;;;;;11.07;5.83;;;;;;;;;;5113937;28;20188;-81
2023/10/03 01:34:33;;;;;;;10.07;5.73;;;;;;;;;;5113716;28;20232;-81
2023/10/03 01:37:01;;;;;;;12.53;5.63;;;;;;;;;;5113669;28;20212;-81
2023/10/03 01:39:30;;;;;;;9.40;5.37;;;;;;;;;;5113654;28;20279;-82
2023/10/03 01:41:58;;;;;;;10.60;5.97;;;;;;;;;;5113537;28;20245;-82
2023/10/03 01:44:28;;;;;;;9.63;5.40;;;;;;;;;;5113568;28;20235;-82
2023/10/03 01:46:55;;;;;;;8.43;5.23;;;;;;;;;;5113860;28;20549;-81
2023/10/03 01:49:22;;;;;;;6.77;5.03;;;;;;;;;;5113804;28;20234;-81
2023/10/03 01:51:50;;;;;;;7.90;4.93;;;;;;;;;;5113742;28;20216;-81
2023/10/03 01:54:17;;;;;;;9.10;5.50;;;;;;;;;;5113297;28;20231;-81
2023/10/03 01:56:44;;;;;;;8.77;5.23;;;;;;;;;;5113644;28;20253;-81
2023/10/03 01:59:13;;;;;;;10.17;5.37;;;;;;;;;;5115514;28;20238;-81
2023/10/03 02:01:40;;;;;;;10.50;5.30;;;;;;;;;;5119357;28;20226;-91
2023/10/03 02:04:07;;;;;;;10.00;4.83;;;;;;;;;;5119085;27;20212;-90
2023/10/03 02:06:34;;;;;;;10.53;4.83;;;;;;;;;;5119756;28;20200;-91
2023/10/03 02:09:03;;;;;;;9.23;4.90;;;;;;;;;;5117992;28;20236;-90
2023/10/03 02:11:32;;;;;;;10.53;5.30;;;;;;;;;;5118797;28;20223;-90
2023/10/03 02:13:59;;;;;;;8.23;4.90;;;;;;;;;;5118349;27;20247;-91
2023/10/03 02:16:28;;;;;;;9.57;4.63;;;;;;;;;;5119494;28;20654;-91
2023/10/03 02:18:55;;;;;;;8.07;4.50;;;;;;;;;;5119107;28;20231;-90
2023/10/03 02:21:23;;;;;;;7.70;4.23;;;;;;;;;;5119246;28;20589;-91
2023/10/03 02:23:50;;;;;;;8.83;4.90;;;;;;;;;;5119283;28;20228;-90
2023/10/03 02:26:18;;;;;;;10.40;5.23;;;;;;;;;;5119554;28;20208;-91
2023/10/03 02:28:45;;;;;;;7.50;4.67;;;;;;;;;;5118867;28;20232;-90
2023/10/03 02:31:15;;;;;;;10.73;5.57;;;;;;;;;;5119443;28;20319;-90
2023/10/03 02:33:44;;;;;;;8.63;4.90;;;;;;;;;;5117984;27;20720;-91
2023/10/03 02:36:11;;;;;;;10.17;5.33;;;;;;;;;;5119118;28;20204;-90
2023/10/03 02:38:38;;;;;;;16.03;5.50;;;;;;;;;;5118911;27;20204;-90
2023/10/03 02:41:06;;;;;;;8.60;5.47;;;;;;;;;;5118706;28;20345;-90
2023/10/03 02:43:34;;;;;;;12.53;5.63;;;;;;;;;;5118266;28;20224;-90
2023/10/03 02:46:04;;;;;;;10.03;4.97;;;;;;;;;;5119296;28;20199;-91
2023/10/03 02:48:31;;;;;;;11.57;5.50;;;;;;;;;;5118741;27;20202;-90
2023/10/03 02:51:01;;;;;;;12.77;5.70;;;;;;;;;;5118867;28;20216;-90
2023/10/03 02:53:29;;;;;;;9.50;5.00;;;;;;;;;;5118723;27;20192;-90
2023/10/03 02:55:56;;;;;;;8.10;4.57;;;;;;;;;;5118650;27;20294;-90
2023/10/03 02:58:23;;;;;;;11.43;5.97;;;;;;;;;;5118190;27;20199;-90
2023/10/03 03:00:51;;;;;;;8.70;4.87;;;;;;;;;;5118806;28;20594;-91
2023/10/03 03:03:18;;;;;;;6.97;5.00;;;;;;;;;;5118403;28;20188;-90
2023/10/03 03:05:48;;;;;;;7.77;5.43;;;;;;;;;;5118133;28;20222;-90
2023/10/03 03:08:23;;;;;;;10.33;6.17;;;;;;;;;;5118415;28;20188;-90
2023/10/03 03:10:54;;;;;;;9.37;5.37;;;;;;;;;;5117661;28;20259;-90
2023/10/03 03:13:22;;;;;;;12.00;5.67;;;;;;;;;;5118352;28;20172;-88
2023/10/03 03:15:53;;;;;;;8.20;4.83;;;;;;;;;;5118458;28;20306;-91
2023/10/03 03:18:21;;;;;;;10.93;5.27;;;;;;;;;;5119174;28;20196;-91
2023/10/03 03:20:53;;;;;;;8.90;5.43;;;;;;;;;;5116856;28;20227;-90
2023/10/03 03:23:23;;;;;;;9.57;4.87;;;;;;;;;;5117276;28;20240;-90
2023/10/03 03:26:02;;;;;;;7.30;4.20;;;;;;;;;;5117068;28;20204;-90
2023/10/03 03:28:29;;;;;;;8.13;5.13;;;;;;;;;;5116800;28;20241;-89
2023/10/03 03:30:57;;;;;;;8.63;5.20;;;;;;;;;;5117510;28;20217;-90
2023/10/03 03:33:27;;;;;;;7.23;4.80;;;;;;;;;;5117314;28;20220;-90
2023/10/03 03:35:54;;;;;;;12.70;4.83;;;;;;;;;;5118213;28;20206;-91
2023/10/03 03:38:23;;;;;;;8.17;4.90;;;;;;;;;;5117770;28;20200;-88
2023/10/03 03:40:56;;;;;;;6.67;4.53;;;;;;;;;;5118079;28;20224;-91
2023/10/03 03:43:24;;;;;;;9.40;5.23;;;;;;;;;;5118321;28;20187;-90
2023/10/03 03:45:52;;;;;;;9.47;4.63;;;;;;;;;;5118172;28;20217;-90
2023/10/03 03:48:21;;;;;;;9.07;5.07;;;;;;;;;;5118144;28;20249;-91
2023/10/03 03:50:50;;;;;;;6.87;4.37;;;;;;;;;;5114775;28;20681;-90
2023/10/03 03:53:18;;;;;;;10.20;5.43;;;;;;;;;;5117706;28;20333;-90
2023/10/03 03:55:49;;;;;;;10.53;5.03;;;;;;;;;;5116832;28;20220;-91
2023/10/03 03:58:17;;;;;;;6.97;4.40;;;;;;;;;;5117581;28;20236;-90
2023/10/03 04:00:47;;;;;;;8.73;4.80;;;;;;;;;;5116039;28;20238;-90
2023/10/03 04:03:15;;;;;;;9.03;5.53;;;;;;;;;;5116452;28;20203;-90
2023/10/03 04:05:42;;;;;;;8.63;5.47;;;;;;;;;;5115744;28;20232;-90
2023/10/03 04:08:10;;;;;;;11.67;5.03;;;;;;;;;;5116641;28;20279;-90
2023/10/03 04:10:38;;;;;;;14.10;5.17;;;;;;;;;;5126762;28;20230;-90
2023/10/03 04:13:10;;;;;;;9.83;4.93;;;;;;;;;;5139546;27;20195;-90
2023/10/03 04:15:58;;;;;;;9.47;5.07;;;;;;;;;;5139007;28;20211;-87
2023/10/03 04:18:26;;;;;;;9.50;4.90;;;;;;;;;;5448233;22;21245;-85
2023/10/03 04:57:11;;;;;;;20.03;7.87;;;;;;;;;;5088745;28;20288;-89
2023/10/03 04:59:39;;;;;;;20.73;8.10;;;;;;;;;;5081334;28;20225;-93
2023/10/03 05:02:06;;;;;;;14.03;7.30;;;;;;;;;;5077743;28;20217;-90
2023/10/03 05:04:34;;;;;;;16.27;7.80;;;;;;;;;;5085757;27;20240;-90
2023/10/03 05:07:01;;;;;;;16.13;7.90;;;;;;;;;;5074400;28;20197;-89
2023/10/03 05:09:30;;;;;;;17.17;8.67;;;;;;;;;;5090226;28;20240;-86
2023/10/03 05:11:57;;;;;;;18.60;8.73;;;;;;;;;;5085028;28;20249;-84
2023/10/03 05:14:25;;;;;;;13.80;7.70;;;;;;;;;;5082280;27;20237;-83
2023/10/03 05:16:52;;;;;;;14.83;7.80;;;;;;;;;;5081268;28;20205;-83
2023/10/03 05:19:20;;;;;;;18.47;8.70;;;;;;;;;;5082264;28;20229;-83
2023/10/03 05:21:48;;;;;;;17.90;9.00;;;;;;;;;;5081511;28;20694;-83
2023/10/03 05:24:16;;;;;;;17.63;8.53;;;;;;;;;;5081447;28;20534;-83
2023/10/03 05:26:43;;;;;;;15.80;8.37;;;;;;;;;;5079485;28;20208;-83
2023/10/03 05:29:10;;;;;;;15.50;7.80;;;;;;;;;;5075646;28;20240;-83
2023/10/03 05:31:41;;;;;;;13.97;8.37;;;;;;;;;;5089740;28;20208;-83
2023/10/03 05:34:08;;;;;;;21.00;9.23;;;;;;;;;;5088117;28;20223;-83
2023/10/03 05:36:35;;;;;;;15.97;9.13;;;;;;;;;;5080433;28;20213;-85
2023/10/03 05:39:03;;;;;;;19.63;8.93;;;;;;;;;;5087911;27;20244;-85
2023/10/03 05:41:30;;;;;;;17.57;9.30;;;;;;;;;;5084219;28;20229;-85
2023/10/03 05:43:57;;;;;;;16.77;8.80;;;;;;;;;;5082930;28;20711;-85
2023/10/03 05:46:24;;;;;;;13.40;8.00;;;;;;;;;;5092015;28;20208;-85
2023/10/03 05:48:53;;;;;;;20.57;9.07;;;;;;;;;;5087727;27;20229;-85
2023/10/03 05:51:20;;;;;;;13.97;8.17;;;;;;;;;;5086601;28;20232;-85
2023/10/03 05:53:47;;;;;;;17.20;8.10;;;;;;;;;;5084066;27;20239;-86
2023/10/03 05:56:15;;;;;;;9.13;6.40;;;;;;;;;;5082477;28;20220;-83
2023/10/03 05:58:43;;;;;;;10.20;6.80;;;;;;;;;;5086447;28;20338;-83
2023/10/03 06:01:12;;;;;;;7.50;5.70;;;;;;;;;;5084115;28;20241;-83
2023/10/03 06:03:39;;;;;;;10.90;6.90;;;;;;;;;;5084530;28;20202;-85
2023/10/03 06:06:07;;;;;;;9.37;6.07;;;;;;;;;;5085363;28;20209;-84
2023/10/03 06:08:35;;;;;;;11.33;6.83;;;;;;;;;;5088593;28;20198;-84
2023/10/03 06:11:04;;;;;;;9.17;5.90;;;;;;;;;;5080130;28;20748;-84
2023/10/03 06:13:31;;;;;;;12.80;6.03;;;;;;;;;;5086866;27;20209;-84
2023/10/03 06:16:00;;;;;;;8.53;5.10;;;;;;;;;;5087937;28;20208;-85
2023/10/03 06:18:27;;;;;;;11.00;5.43;;;;;;;;;;5076810;28;20255;-86
2023/10/03 06:20:56;;;;;;;6.97;4.80;;;;;;;;;;5083780;28;20274;-85
2023/10/03 06:23:25;;;;;;;9.23;5.53;;;;;;;;;;5084094;28;20714;-87
2023/10/03 06:25:52;;;;;;;10.63;5.73;;;;;;;;;;5084803;28;20234;-87
2023/10/03 06:28:21;;;;;;;9.37;4.43;;;;;;;;;;5083365;28;20209;-86
2023/10/03 06:30:48;;;;;;;9.97;4.87;;;;;;;;;;5087094;28;20236;-87
2023/10/03 06:33:15;;;;;;;6.47;4.03;;;;;;;;;;5082232;28;20671;-88
2023/10/03 06:35:42;;;;;;;11.30;4.43;;;;;;;;;;5087356;28;20280;-87
2023/10/03 06:38:09;;;;;;;7.03;4.93;;;;;;;;;;5088329;28;20197;-87
2023/10/03 06:40:40;;;;;;;7.50;4.93;;;;;;;;;;5087007;27;20232;-86
2023/10/03 06:43:08;;;;;;;6.57;4.10;;;;;;;;;;5088045;28;20228;-87
2023/10/03 06:45:35;;;;;;;8.20;4.60;;;;;;;;;;5086119;28;20229;-86
2023/10/03 06:48:03;;;;;;;7.93;4.53;;;;;;;;;;5086344;28;20201;-87
2023/10/03 06:50:31;;;;;;;5.53;4.10;;;;;;;;;;5083194;28;20235;-87
2023/10/03 06:53:15;;;;;;;6.27;3.80;;;;;;;;;;5090311;28;20200;-89
2023/10/03 06:55:43;;;;;;;6.70;3.90;;;;;;;;;;5080165;28;20298;-88
2023/10/03 06:58:11;;;;;;;9.83;4.80;;;;;;;;;;5083971;28;20197;-88
2023/10/03 07:00:38;;;;;;;7.27;4.07;;;;;;;;;;5083490;28;20252;-88
2023/10/03 07:03:06;;;;;;;6.50;4.60;;;;;;;;;;5084021;28;20264;-89
2023/10/03 07:05:33;;;;;;;5.43;3.93;;;;;;;;;;5086016;27;20229;-87
2023/10/03 07:08:00;;;;;;;7.97;4.40;;;;;;;;;;5088058;28;20204;-87
2023/10/03 07:10:27;;;;;;;7.90;4.43;;;;;;;;;;5085592;28;20710;-86
2023/10/03 07:12:57;;;;;;;5.37;3.60;;;;;;;;;;5083973;28;20199;-85
2023/10/03 07:15:25;;;;;;;7.57;4.57;;;;;;;;;;5085072;27;20330;-85
2023/10/03 07:17:52;;;;;;;7.13;4.03;;;;;;;;;;5090767;28;20267;-85
2023/10/03 07:20:19;;;;;;;8.63;4.47;;;;;;;;;;5083568;27;20237;-85
2023/10/03 07:22:47;;;;;;;6.97;3.80;;;;;;;;;;5088029;28;20269;-85
2023/10/03 07:25:14;;;;;;;6.57;3.90;;;;;;;;;;5083547;27;20316;-84
2023/10/03 07:27:41;;;;;;;7.47;3.77;;;;;;;;;;5075716;28;20198;-85
2023/10/03 07:30:14;;;;;;;5.03;3.78;;;;;;;;;;5083101;27;20584;-83
2023/10/03 07:32:41;;;;;;;5.70;3.80;;;;;;;;;;5087930;28;20211;-82
2023/10/03 07:35:11;;;;;;;7.13;4.15;;;;;;;;;;5086868;28;20613;-82
2023/10/03 07:37:40;;;;;;;6.55;4.13;;;;;;;;;;5084300;28;20220;-84
2023/10/03 07:40:08;;;;;;;7.10;3.30;;;;;;;;;;5090018;27;20706;-83
2023/10/03 07:42:35;;;;;;;7.25;4.07;;;;;;;;;;5085454;28;20708;-82
2023/10/03 07:45:03;;;;;;;5.47;3.55;;;;;;;;;;5089872;27;20270;-83
2023/10/03 07:47:31;;;;;;;6.45;4.72;;;;;;;;;;5085460;28;20634;-88
2023/10/03 07:50:01;;;;;;;6.28;3.33;;;;;;;;;;5088702;27;20260;-87
2023/10/03 07:52:28;;;;;;;6.30;3.83;;;;;;;;;;5085599;28;20212;-90
2023/10/03 07:54:56;;;;;;;9.23;3.90;;;;;;;;;;5083235;27;20232;-86
2023/10/03 07:57:25;;;;;;;5.60;3.95;;;;;;;;;;5083609;28;20211;-86
2023/10/03 07:59:52;;;;;;;10.07;3.92;;;;;;;;;;5085618;28;20301;-87
2023/10/03 08:02:26;;;;;;;5.82;3.47;;;;;;;;;;5084663;28;20229;-84
2023/10/03 08:05:00;;;;;;;4.50;3.47;;;;;;;;;;5077927;28;20220;-84
2023/10/03 08:07:29;;;;;;;7.18;3.80;;;;;;;;;;5083754;28;20294;-82
2023/10/03 08:09:56;;;;;;;6.75;3.85;;;;;;;;;;5083147;27;20228;-84
2023/10/03 08:12:24;;;;;;;5.25;3.75;;;;;;;;;;5085998;28;20205;-84
2023/10/03 08:14:52;;;;;;;5.82;3.58;;;;;;;;;;5094797;27;20309;-89
2023/10/03 08:17:19;;;;;;;8.38;3.95;;;;;;;;;;5082595;28;20213;-87
2023/10/03 08:19:46;;;;;;;5.10;3.33;;;;;;;;;;5074463;28;20729;-87
2023/10/03 08:22:15;;;;;;;6.45;3.75;;;;;;;;;;5074845;28;20584;-86
2023/10/03 08:24:44;;;;;;;4.47;3.22;;;;;;;;;;5066430;28;20784;-90
2023/10/03 08:27:18;;;;;;;7.65;3.83;;;;;;;;;;5076046;28;20201;-87
2023/10/03 08:29:45;;;;;;;5.78;3.80;;;;;;;;;;5074585;28;20237;-88
2023/10/03 08:32:16;;;;;;;5.65;3.50;;;;;;;;;;5075914;28;20216;-89
2023/10/03 08:34:44;;;;;;;4.85;3.47;;;;;;;;;;5072292;28;20320;-90
2023/10/03 08:37:18;;;;;;;6.68;4.35;;;;;;;;;;5055557;28;20198;-88
2023/10/03 08:39:49;;;;;;;8.10;3.80;;;;;;;;;;5053974;28;20283;-87
2023/10/03 08:42:44;;;;;;;5.72;4.13;;;;;;;;;;5055306;28;20256;-88
2023/10/03 08:45:22;;;;;;;7.72;3.95;;;;;;;;;;5054742;28;20257;-89
2023/10/03 08:47:51;;;;;;;6.07;3.50;;;;;;;;;;5055180;28;20214;-88
2023/10/03 08:50:33;;;;;;;5.05;3.40;;;;;;;;;;5054920;28;20329;-88
2023/10/03 08:53:12;;;;;;;11.77;4.38;;;;;;;;;;5055421;28;20843;-88
2023/10/03 08:55:43;;;;;;;9.20;4.47;;;;;;;;;;5055190;28;20234;-89
2023/10/03 08:58:14;;;;;;;5.78;4.03;;;;;;;;;;5055362;28;20216;-88
2023/10/03 09:00:45;;;;;;;7.88;3.72;;;;;;;;;;5095779;27;20228;-92
2023/10/03 09:03:12;;;;;;;8.20;4.53;;;;;;;;;;5099607;28;20544;-92
2023/10/03 09:05:41;;;;;;;12.13;3.88;;;;;;;;;;5099398;28;20228;-90
2023/10/03 09:08:09;;;;;;;9.15;3.78;;;;;;;;;;5095923;28;20754;-87
2023/10/03 09:10:48;;;;;;;7.55;3.95;;;;;;;;;;5094366;27;20240;-89
2023/10/03 09:13:23;;;;;;;5.00;3.80;;;;;;;;;;5075818;28;20205;-85
2023/10/03 09:15:50;;;;;;;5.32;3.35;;;;;;;;;;5073558;28;20221;-87
2023/10/03 09:18:21;;;;;;;4.40;3.22;;;;;;;;;;5073767;28;20316;-87
2023/10/03 09:20:49;;;;;;;7.43;3.35;;;;;;;;;;5073616;28;20228;-85
2023/10/03 09:23:18;;;;;;;4.18;3.60;;;;;;;;;;5074130;28;20229;-87
2023/10/03 09:25:52;;;;;;;7.65;3.53;;;;;;;;;;5073513;28;20233;-85
2023/10/03 09:28:27;;;;;;;5.03;3.63;;;;;;;;;;5074411;28;20646;-85
2023/10/03 09:30:56;;;;;;;6.45;4.03;;;;;;;;;;5074940;28;20262;-87
2023/10/03 09:33:24;;;;;;;4.93;3.58;;;;;;;;;;5074456;28;20205;-88
2023/10/03 09:35:57;;;;;;;5.57;3.05;;;;;;;;;;5076029;28;20190;-93
2023/10/03 09:38:42;;;;;;;5.78;3.88;;;;;;;;;;5073932;28;20655;-93
2023/10/03 09:41:16;;;;;;;5.70;3.60;;;;;;;;;;5074175;28;20711;-89
2023/10/03 09:43:47;;;;;;;6.57;3.97;;;;;;;;;;5074164;28;20236;-88
2023/10/03 09:49:07;;;;;;;5.57;3.60;;;;;;;;;;5074080;28;20229;-89
2023/10/03 09:51:47;;;;;;;6.07;3.47;;;;;;;;;;5074901;28;20718;-88
2023/10/03 09:54:23;;;;;;;6.30;3.60;;;;;;;;;;5074724;28;20228;-89
2023/10/03 09:56:50;;;;;;;4.72;3.65;;;;;;;;;;5074782;28;20305;-88
2023/10/03 09:59:20;;;;;;;6.82;3.28;;;;;;;;;;5074433;28;20256;-89
2023/10/03 10:01:48;;;;;;;6.53;3.63;;;;;;;;;;5075195;28;20259;-88
2023/10/03 10:04:16;;;;;;;15.30;3.95;;;;;;;;;;5073774;28;20233;-90
2023/10/03 10:06:48;;;;;;;5.53;3.55;;;;;;;;;;5073499;28;21018;-86
2023/10/03 10:09:27;;;;;;;5.03;3.30;;;;;;;;;;5068017;28;20264;-87
2023/10/03 10:12:10;;;;;;;8.18;3.70;;;;;;;;;;5064380;28;20221;-85
2023/10/03 10:14:53;;;;;;;5.05;3.63;;;;;;;;;;5075203;28;20295;-86
2023/10/03 10:17:22;;;;;;;5.43;3.38;;;;;;;;;;5073109;28;20209;-85
2023/10/03 10:20:08;;;;;;;4.25;3.30;;;;;;;;;;5073852;28;20686;-84
2023/10/03 10:22:50;;;;;;;5.35;3.58;;;;;;;;;;5078905;28;20209;-86
2023/10/03 10:25:26;;;;;;;5.75;3.72;;;;;;;;;;5067960;28;20235;-84
2023/10/03 10:28:01;;;;;;;6.55;3.65;;;;;;;;;;5062322;28;20576;-86
2023/10/03 10:30:28;;;;;;;5.50;3.65;;;;;;;;;;5075727;28;20252;-85
2023/10/03 10:33:14;;;;;;;7.68;3.50;;;;;;;;;;5076420;28;20204;-87
2023/10/03 10:35:54;;;;;;;5.35;3.30;;;;;;;;;;5075953;28;20229;-85
2023/10/03 10:38:21;;;;;;;6.45;3.65;;;;;;;;;;5076885;28;20232;-86
2023/10/03 10:41:07;;;;;;;5.72;3.90;;;;;;;;;;5075448;28;20223;-83
2023/10/03 10:43:34;;;;;;;5.35;3.85;;;;;;;;;;5076539;28;20581;-82
2023/10/03 10:46:16;;;;;;;5.25;3.75;;;;;;;;;;5077712;28;20197;-83
2023/10/03 10:48:46;;;;;;;4.85;3.40;;;;;;;;;;5078678;28;20279;-81
2023/10/03 10:51:16;;;;;;;5.97;3.15;;;;;;;;;;5076208;28;20236;-85
2023/10/03 10:53:44;;;;;;;4.88;3.53;;;;;;;;;;5072037;28;20658;-84
2023/10/03 10:56:12;;;;;;;5.85;3.60;;;;;;;;;;5071800;28;20215;-84
2023/10/03 10:58:50;;;;;;;5.07;3.58;;;;;;;;;;5077690;28;20229;-83
2023/10/03 11:01:18;;;;;;;7.47;3.88;;;;;;;;;;5076669;28;20308;-83
2023/10/03 11:03:45;;;;;;;6.35;3.67;;;;;;;;;;5073678;28;20233;-83
2023/10/03 11:06:17;;;;;;;4.88;3.17;;;;;;;;;;5070490;28;20205;-85
2023/10/03 11:08:47;;;;;;;5.65;3.50;;;;;;;;;;5076277;28;20236;-83
2023/10/03 11:11:14;;;;;;;4.78;3.70;;;;;;;;;;5076177;28;20271;-84
2023/10/03 11:13:48;;;;;;;5.40;3.60;;;;;;;;;;5074531;28;20206;-85
2023/10/03 11:16:23;;;;;;;6.90;3.30;;;;;;;;;;5074808;28;20201;-85
2023/10/03 11:18:51;;;;;;;3.13;2.72;;;;;;;;;;5074406;28;20230;-85
2023/10/03 11:21:20;;;;;;;4.88;3.45;;;;;;;;;;5075236;28;20221;-84
2023/10/03 11:24:03;;;;;;;3.95;3.20;;;;;;;;;;5074214;28;20695;-85
2023/10/03 11:26:41;;;;;;;6.07;3.33;;;;;;;;;;5074055;28;20205;-91
2023/10/03 11:29:08;;;;;;;9.88;3.42;;;;;;;;;;5076940;28;20239;-88
2023/10/03 11:31:38;;;;;;;6.05;3.33;;;;;;;;;;5075843;28;20282;-89
2023/10/03 11:34:05;;;;;;;6.13;3.80;;;;;;;;;;5076328;28;20278;-89
2023/10/03 11:36:43;;;;;;;7.97;3.90;;;;;;;;;;5078360;28;20209;-88
2023/10/03 11:39:14;;;;;;;6.20;4.00;;;;;;;;;;5078354;28;20239;-87
2023/10/03 11:41:41;;;;;;;5.95;3.80;;;;;;;;;;5085112;28;20286;-88
2023/10/03 11:44:21;;;;;;;6.63;3.60;;;;;;;;;;5075871;28;20229;-88
2023/10/03 11:46:48;;;;;;;5.45;3.47;;;;;;;;;;5076945;28;20251;-88
2023/10/03 11:49:17;;;;;;;5.10;3.28;;;;;;;;;;5078059;28;20237;-87
2023/10/03 11:51:47;;;;;;;4.97;3.22;;;;;;;;;;5080221;28;20592;-88
2023/10/03 11:54:15;;;;;;;5.03;3.30;;;;;;;;;;5072760;28;20233;-89
2023/10/03 11:56:43;;;;;;;6.75;4.00;;;;;;;;;;5074974;28;20340;-88
2023/10/03 11:59:14;;;;;;;6.88;3.70;;;;;;;;;;5072659;28;20233;-87
2023/10/03 12:01:42;;;;;;;6.40;3.35;;;;;;;;;;5075974;28;20304;-91
2023/10/03 12:04:11;;;;;;;4.50;3.50;;;;;;;;;;5075481;28;20233;-88
2023/10/03 12:06:38;;;;;;;6.35;3.15;;;;;;;;;;5075559;28;20189;-89
2023/10/03 12:09:08;;;;;;;4.80;3.13;;;;;;;;;;5075195;28;20314;-90
2023/10/03 12:11:36;;;;;;;5.30;3.00;;;;;;;;;;5075859;28;20248;-89
2023/10/03 12:14:03;;;;;;;5.03;3.30;;;;;;;;;;5073982;28;20233;-88
2023/10/03 12:16:30;;;;;;;4.45;3.10;;;;;;;;;;5074889;28;20562;-87
2023/10/03 12:18:57;;;;;;;6.35;2.70;;;;;;;;;;5081497;28;20229;-89
2023/10/03 12:21:25;;;;;;;8.68;3.05;;;;;;;;;;5077321;28;20252;-88
2023/10/03 12:23:52;;;;;;;7.18;3.00;;;;;;;;;;5077420;28;20241;-89
2023/10/03 12:26:20;;;;;;;5.10;3.17;;;;;;;;;;5076686;28;20679;-92
2023/10/03 12:28:47;;;;;;;4.00;2.85;;;;;;;;;;5076200;28;20232;-92
2023/10/03 12:31:14;;;;;;;6.07;3.17;;;;;;;;;;5075282;28;20229;-89
2023/10/03 12:33:41;;;;;;;5.30;2.92;;;;;;;;;;5074378;28;20237;-93
2023/10/03 12:36:11;;;;;;;5.90;3.60;;;;;;;;;;5075747;28;20201;-91
2023/10/03 12:38:39;;;;;;;3.60;2.53;;;;;;;;;;5075834;28;20205;-88
2023/10/03 12:41:06;;;;;;;5.68;3.15;;;;;;;;;;5075143;28;20225;-88
2023/10/03 12:43:35;;;;;;;4.00;3.00;;;;;;;;;;5074633;28;20249;-88
2023/10/03 12:46:02;;;;;;;3.97;3.03;;;;;;;;;;5074488;28;20214;-87
2023/10/03 12:48:29;;;;;;;4.70;3.17;;;;;;;;;;5074720;28;20201;-88
2023/10/03 12:50:57;;;;;;;4.90;3.28;;;;;;;;;;5074482;28;20217;-89
2023/10/03 12:53:24;;;;;;;4.55;2.95;;;;;;;;;;5073667;28;20209;-88
2023/10/03 12:55:51;;;;;;;4.40;3.00;;;;;;;;;;5073893;28;20217;-87
2023/10/03 12:58:21;;;;;;;4.35;2.88;;;;;;;;;;5074185;28;20208;-89
2023/10/03 13:00:50;;;;;;;6.10;3.10;;;;;;;;;;5073337;28;20243;-87
2023/10/03 13:03:17;;;;;;;4.22;2.45;;;;;;;;;;5074653;28;20205;-90
2023/10/03 13:05:44;;;;;;;3.17;2.53;;;;;;;;;;5073202;28;20233;-87
2023/10/03 13:08:12;;;;;;;5.63;3.05;;;;;;;;;;5081109;28;20214;-89
2023/10/03 13:10:41;;;;;;;4.18;2.75;;;;;;;;;;5091318;28;20216;-94
2023/10/03 13:13:09;;;;;;;3.55;2.88;;;;;;;;;;5085229;28;20205;-95
2023/10/03 13:15:36;;;;;;;4.32;2.83;;;;;;;;;;5079183;28;20233;-92
2023/10/03 13:18:06;;;;;;;5.80;3.45;;;;;;;;;;5089741;28;20194;-91
2023/10/03 13:20:33;;;;;;;4.32;3.40;;;;;;;;;;5086954;28;20244;-89
2023/10/03 13:23:01;;;;;;;4.15;2.95;;;;;;;;;;5072140;28;20307;-88
2023/10/03 13:25:29;;;;;;;4.63;2.60;;;;;;;;;;5088029;28;20239;-89
2023/10/03 13:27:57;;;;;;;4.45;2.70;;;;;;;;;;5076984;28;20201;-90
2023/10/03 13:30:27;;;;;;;3.25;2.47;;;;;;;;;;5073430;28;20239;-89
2023/10/03 13:32:55;;;;;;;3.20;2.20;;;;;;;;;;5074367;28;20201;-90
2023/10/03 13:35:24;;;;;;;3.13;2.15;;;;;;;;;;5074642;28;20275;-91
2023/10/03 13:37:52;;;;;;;2.03;1.83;;;;;;;;;;5075384;28;20212;-94
2023/10/03 13:40:20;;;;;;;2.33;1.83;;;;;;;;;;5077643;28;20237;-88
2023/10/03 13:42:48;;;;;;;3.42;2.00;;;;;;;;;;5081530;28;20204;-88
2023/10/03 13:45:15;;;;;;;3.42;1.85;;;;;;;;;;5084371;28;20244;-90
2023/10/03 13:47:43;;;;;;;2.67;1.83;;;;;;;;;;5084524;28;20296;-89
2023/10/03 13:50:12;;;;;;;1.23;1.10;;;;;;;;;;5087619;28;20233;-90
2023/10/03 13:52:40;;;;;;;2.03;1.13;;;;;;;;;;5083279;28;20213;-89
2023/10/03 13:55:09;;;;;;;1.35;0.80;;;;;;;;;;5093163;28;21099;-90
2023/10/03 13:57:36;;;;;;;1.83;0.80;;;;;;;;;;5091481;28;20201;-89
2023/10/03 14:00:06;;;;;;;0.45;0.45;;;;;;;;;;5083567;28;20233;-92
2023/10/03 14:02:34;;;;;;;1.42;0.80;;;;;;;;;;5079327;28;20232;-90
2023/10/03 14:05:03;;;;;;;0.57;0.52;;;;;;;;;;5078180;28;20229;-92
2023/10/03 14:07:31;;;;;;;1.20;0.60;;;;;;;;;;5078941;28;20240;-89
2023/10/03 14:10:00;;;;;;;0.40;0.40;;;;;;;;;;5079532;28;20241;-88
2023/10/03 14:12:27;;;;;;;0.82;0.50;;;;;;;;;;5080141;28;20265;-88
2023/10/03 14:14:56;;;;;;;0.47;0.47;;;;;;;;;;5077485;28;20241;-86
2023/10/03 14:17:24;;;;;;;1.30;0.70;;;;;;;;;;5077414;28;20233;-88
2023/10/03 14:19:51;;;;;;;0.70;0.70;;;;;;;;;;5076150;28;20255;-87
2023/10/03 14:22:20;;;;;;;1.45;0.82;;;;;;;;;;5077157;28;20201;-86
2023/10/03 14:24:47;;;;;;;0.70;0.70;;;;;;;;;;5076399;28;20729;-86
2023/10/03 14:27:16;;;;;;;0.70;0.68;;;;;;;;;;5076077;28;20213;-87
2023/10/03 14:29:43;;;;;;;0.90;0.75;;;;;;;;;;5076955;28;20229;-87
2023/10/03 14:32:11;;;;;;;0.70;0.70;;;;;;;;;;5076723;28;20288;-85
2023/10/03 14:34:38;;;;;;;1.75;0.68;;;;;;;;;;5076612;28;20228;-88
2023/10/03 14:37:06;;;;;;;0.57;0.57;;;;;;;;;;5078442;28;20256;-84
2023/10/03 14:39:33;;;;;;;1.35;0.73;;;;;;;;;;5076263;28;20647;-88
2023/10/03 14:42:00;;;;;;;0.80;0.80;;;;;;;;;;5072169;28;20641;-88
2023/10/03 14:44:28;;;;;;;0.57;0.57;;;;;;;;;;5075552;28;20342;-87
2023/10/03 14:46:56;;;;;;;1.63;1.13;;;;;;;;;;5076421;28;20667;-87
2023/10/03 14:49:23;;;;;;;1.55;1.20;;;;;;;;;;5075551;28;20603;-87
2023/10/03 14:51:50;;;;;;;1.90;1.20;;;;;;;;;;5074008;28;20733;-88
2023/10/03 14:54:18;;;;;;;0.85;0.85;;;;;;;;;;5075352;28;20308;-86
2023/10/03 14:56:47;;;;;;;1.33;1.00;;;;;;;;;;5075822;28;20308;-86
2023/10/03 14:59:14;;;;;;;0.82;0.82;;;;;;;;;;5073493;28;20411;-86
2023/10/03 15:01:43;;;;;;;0.82;0.80;;;;;;;;;;5075634;28;20608;-87
2023/10/03 15:04:10;;;;;;;0.80;0.80;;;;;;;;;;5075516;28;20650;-87
2023/10/03 15:06:38;;;;;;;1.10;1.05;;;;;;;;;;5075463;28;20237;-87
2023/10/03 15:09:07;;;;;;;4.00;0.85;;;;;;;;;;5075190;28;20275;-87
2023/10/03 15:11:35;;;;;;;0.98;0.98;;;;;;;;;;5074852;28;20260;-86
2023/10/03 15:14:02;;;;;;;5.18;1.00;;;;;;;;;;5074367;28;20229;-88
2023/10/03 15:16:32;;;;;;;1.65;1.08;;;;;;;;;;5075693;28;20217;-87
2023/10/03 15:19:02;;;;;;;2.80;0.98;;;;;;;;;;5075109;28;20229;-87
2023/10/03 15:21:30;;;;;;;2.03;1.05;;;;;;;;;;5075542;28;20228;-87
2023/10/03 15:23:57;;;;;;;0.90;0.77;;;;;;;;;;5074698;28;20217;-87
2023/10/03 15:26:24;;;;;;;0.90;0.90;;;;;;;;;;5075918;28;20316;-86
2023/10/03 15:28:52;;;;;;;1.60;1.10;;;;;;;;;;5074916;28;20233;-88
2023/10/03 15:31:22;;;;;;;1.30;1.10;;;;;;;;;;5074430;28;20225;-87